Time;durP1;ratioP1;P1;durP2;ratioP2;P2;SDS_P1;SDS_P2;PMS_P1;PMS_P2;Temp;Humidity;BMP_temperature;BMP_pressure;BME280_temperature;BME280_humidity;BME280_pressure;Samples;Min_cycle;Max_cycle;Signal;HPM_P1;HPM_P2
2023/03/15 00:01:30;;;;;;;2.17;0.70;;;10.80;99.90;;;;;;6221406;23;20171;-96
2023/03/15 00:04:04;;;;;;;1.23;0.70;;;10.80;99.90;;;;;;6230813;23;20216;-96
2023/03/15 00:06:35;;;;;;;1.33;0.70;;;10.90;99.90;;;;;;6242934;23;20168;-96
2023/03/15 00:09:07;;;;;;;0.50;0.40;;;10.90;99.90;;;;;;6238216;23;20204;-96
2023/03/15 00:11:39;;;;;;;3.13;0.60;;;11.00;99.90;;;;;;6227785;23;20168;-96
2023/03/15 00:14:10;;;;;;;2.57;0.60;;;11.10;99.90;;;;;;6223244;23;20238;-96
2023/03/15 00:16:49;;;;;;;0.57;0.50;;;11.30;99.90;;;;;;6198175;23;20652;-95
2023/03/15 00:19:21;;;;;;;2.97;0.60;;;11.30;99.90;;;;;;6221644;23;20195;-96
2023/03/15 00:21:51;;;;;;;1.43;0.70;;;11.40;99.90;;;;;;6220718;23;20195;-96
2023/03/15 00:24:22;;;;;;;4.13;0.80;;;11.30;99.90;;;;;;6219993;23;20573;-96
2023/03/15 00:26:55;;;;;;;1.33;0.70;;;11.30;99.90;;;;;;6240913;23;20169;-96
2023/03/15 00:29:26;;;;;;;0.97;0.70;;;11.30;99.90;;;;;;6240103;23;20185;-96
2023/03/15 00:31:57;;;;;;;2.50;0.70;;;11.20;99.90;;;;;;6240074;23;20211;-95
2023/03/15 00:34:28;;;;;;;2.10;0.67;;;11.10;99.90;;;;;;6241052;23;20168;-96
2023/03/15 00:36:58;;;;;;;2.50;0.73;;;11.00;99.90;;;;;;6239108;23;20169;-96
2023/03/15 00:39:29;;;;;;;2.40;1.00;;;10.60;99.90;;;;;;6237974;23;20192;-96
2023/03/15 00:42:02;;;;;;;1.23;0.83;;;10.40;99.90;;;;;;6236086;23;20169;-96
2023/03/15 00:44:33;;;;;;;1.60;0.50;;;10.40;99.90;;;;;;6241264;23;20268;-96
2023/03/15 00:47:34;;;;;;;2.60;0.90;;;10.30;99.90;;;;;;6229657;23;20176;-96
2023/03/15 00:56:32;;;;;;;1.00;0.50;;;10.00;99.90;;;;;;6224539;23;20191;-96
2023/03/15 00:59:04;;;;;;;0.50;0.40;;;9.90;99.90;;;;;;6222236;23;20180;-96
2023/03/15 01:01:35;;;;;;;2.50;0.50;;;9.70;99.90;;;;;;6221231;23;20251;-96
2023/03/15 01:04:06;;;;;;;0.40;0.30;;;9.70;99.90;;;;;;6220411;23;20235;-96
2023/03/15 01:06:39;;;;;;;0.93;0.60;;;9.70;99.90;;;;;;6169459;23;20556;-95
2023/03/15 01:09:09;;;;;;;1.77;0.50;;;9.60;99.90;;;;;;6219382;23;20230;-95
2023/03/15 01:11:40;;;;;;;0.73;0.50;;;9.50;99.90;;;;;;6220938;23;20203;-95
2023/03/15 01:14:13;;;;;;;0.50;0.50;;;9.50;99.90;;;;;;6223098;23;20177;-96
2023/03/15 01:16:44;;;;;;;1.53;0.40;;;9.40;99.90;;;;;;6224393;23;20169;-95
2023/03/15 01:19:18;;;;;;;0.40;0.40;;;9.40;99.90;;;;;;6232112;23;20169;-95
2023/03/15 01:21:51;;;;;;;2.10;0.47;;;9.30;99.90;;;;;;6232099;23;20180;-95
2023/03/15 01:24:45;;;;;;;0.90;0.77;;;9.20;99.90;;;;;;6219123;23;20820;-96
2023/03/15 01:27:17;;;;;;;1.20;0.60;;;9.10;99.90;;;;;;6218627;23;20663;-94
2023/03/15 01:29:49;;;;;;;1.10;0.70;;;9.10;99.90;;;;;;6222168;23;20177;-96
2023/03/15 01:32:21;;;;;;;1.90;0.57;;;9.00;99.90;;;;;;6237396;23;20168;-95
2023/03/15 01:34:52;;;;;;;2.33;0.70;;;8.90;99.90;;;;;;6237746;23;20180;-96
2023/03/15 01:37:23;;;;;;;0.80;0.77;;;8.90;99.90;;;;;;6238092;23;20173;-96
2023/03/15 01:39:54;;;;;;;1.73;0.80;;;8.90;99.90;;;;;;6238829;23;20219;-96
2023/03/15 01:42:25;;;;;;;1.80;0.80;;;8.80;99.90;;;;;;6239523;23;20661;-96
2023/03/15 01:45:00;;;;;;;1.70;0.80;;;8.80;99.90;;;;;;6238517;23;20168;-96
2023/03/15 01:47:31;;;;;;;0.80;0.60;;;8.70;99.90;;;;;;6242286;23;20176;-96
2023/03/15 01:50:06;;;;;;;1.87;0.60;;;8.70;99.90;;;;;;6242401;23;20156;-96
2023/03/15 01:52:41;;;;;;;2.03;0.90;;;8.70;99.90;;;;;;6239619;23;20194;-96
2023/03/15 01:55:14;;;;;;;2.60;0.90;;;8.50;99.90;;;;;;6215879;23;20168;-96
2023/03/15 01:57:50;;;;;;;0.90;0.70;;;8.40;99.90;;;;;;6217964;23;20386;-95
2023/03/15 02:00:24;;;;;;;1.47;0.80;;;8.30;99.90;;;;;;6207815;23;20224;-92
2023/03/15 02:03:00;;;;;;;1.13;0.70;;;8.20;99.90;;;;;;6207950;23;20187;-91
2023/03/15 02:05:35;;;;;;;1.00;0.70;;;8.10;99.90;;;;;;6201247;23;20181;-91
2023/03/15 02:08:10;;;;;;;1.03;0.40;;;8.00;99.90;;;;;;6198204;23;20172;-90
2023/03/15 02:10:45;;;;;;;1.33;0.60;;;7.90;99.90;;;;;;6194618;23;20184;-90
2023/03/15 02:13:21;;;;;;;1.10;0.70;;;7.80;99.90;;;;;;6196275;23;20164;-91
2023/03/15 02:15:55;;;;;;;1.23;0.77;;;7.70;99.90;;;;;;6210018;23;20222;-91
2023/03/15 02:18:27;;;;;;;2.03;0.77;;;7.60;99.90;;;;;;6206170;23;20199;-92
2023/03/15 02:21:06;;;;;;;1.70;0.80;;;7.50;99.90;;;;;;6188542;23;20209;-92
2023/03/15 02:23:37;;;;;;;1.27;0.93;;;7.40;99.90;;;;;;6187539;23;20247;-92
2023/03/15 02:26:19;;;;;;;1.77;0.90;;;7.30;99.90;;;;;;6188469;23;20207;-92
2023/03/15 02:28:55;;;;;;;2.80;1.87;;;7.30;99.90;;;;;;6185155;23;20173;-91
2023/03/15 02:31:27;;;;;;;5.40;3.10;;;7.20;99.90;;;;;;6190927;23;20177;-91
2023/03/15 02:33:59;;;;;;;4.77;3.10;;;7.10;99.90;;;;;;6186966;23;20256;-93
2023/03/15 02:36:32;;;;;;;4.93;2.57;;;7.10;99.90;;;;;;6190585;23;20173;-89
2023/03/15 02:39:13;;;;;;;5.87;2.60;;;7.00;99.90;;;;;;6190490;23;20243;-92
2023/03/15 02:41:48;;;;;;;3.17;2.40;;;6.90;99.90;;;;;;6187431;23;20208;-91
2023/03/15 02:44:28;;;;;;;6.40;2.23;;;6.80;99.90;;;;;;6192753;23;20200;-90
2023/03/15 02:47:05;;;;;;;2.33;1.83;;;6.70;99.90;;;;;;6172261;23;20224;-92
2023/03/15 02:49:43;;;;;;;4.17;1.53;;;6.70;99.90;;;;;;6191600;23;20227;-91
2023/03/15 02:52:15;;;;;;;3.53;1.87;;;6.60;99.90;;;;;;6186411;23;20250;-90
2023/03/15 02:54:47;;;;;;;2.70;1.27;;;6.60;99.90;;;;;;6195563;23;20200;-90
2023/03/15 02:57:20;;;;;;;3.73;1.67;;;6.50;99.90;;;;;;6195849;23;20173;-92
2023/03/15 02:59:54;;;;;;;3.33;1.50;;;6.50;99.90;;;;;;6196826;23;20197;-91
2023/03/15 03:02:27;;;;;;;6.77;4.63;;;6.50;99.90;;;;;;6188432;23;20197;-91
2023/03/15 03:04:58;;;;;;;9.30;6.77;;;6.50;99.90;;;;;;6187939;23;20165;-92
2023/03/15 03:07:30;;;;;;;5.90;3.30;;;6.50;99.90;;;;;;6186048;23;20228;-91
2023/03/15 03:10:02;;;;;;;4.20;2.10;;;6.50;99.90;;;;;;6186580;23;20215;-92
2023/03/15 03:12:33;;;;;;;2.60;1.20;;;6.50;99.90;;;;;;6186842;23;20239;-92
2023/03/15 03:15:08;;;;;;;3.03;1.20;;;6.40;99.90;;;;;;6186516;23;20236;-90
2023/03/15 03:17:39;;;;;;;2.73;1.00;;;6.30;99.90;;;;;;6184811;23;20639;-91
2023/03/15 03:20:12;;;;;;;2.53;1.50;;;6.30;99.90;;;;;;6187281;23;20604;-92
2023/03/15 03:22:46;;;;;;;2.30;1.40;;;6.40;99.90;;;;;;6187913;23;20201;-94
2023/03/15 03:25:17;;;;;;;1.10;1.00;;;6.40;99.90;;;;;;6187330;23;20220;-91
2023/03/15 03:27:48;;;;;;;1.73;1.10;;;6.30;99.90;;;;;;6186732;23;20192;-91
2023/03/15 03:30:21;;;;;;;1.10;1.00;;;6.30;99.90;;;;;;6187438;23;20239;-92
2023/03/15 03:32:53;;;;;;;1.27;0.80;;;6.30;99.90;;;;;;6161479;23;20178;-92
2023/03/15 03:35:24;;;;;;;4.80;1.77;;;6.20;99.90;;;;;;6186948;23;20170;-91
2023/03/15 03:37:56;;;;;;;4.77;1.20;;;6.20;99.90;;;;;;6160473;23;20180;-91
2023/03/15 03:40:28;;;;;;;3.07;0.90;;;6.20;99.90;;;;;;6185960;23;20181;-89
2023/03/15 03:42:59;;;;;;;3.60;1.27;;;6.20;99.90;;;;;;6187196;23;20201;-90
2023/03/15 03:45:35;;;;;;;4.53;1.70;;;6.10;99.90;;;;;;6186426;23;20161;-90
2023/03/15 03:48:07;;;;;;;1.37;1.10;;;6.10;99.90;;;;;;6183785;23;20236;-89
2023/03/15 03:50:40;;;;;;;1.87;0.90;;;6.10;99.90;;;;;;6160447;23;20196;-89
2023/03/15 03:53:13;;;;;;;2.53;1.07;;;6.10;99.90;;;;;;6160004;23;20176;-90
2023/03/15 03:55:45;;;;;;;2.00;1.17;;;6.10;99.90;;;;;;6186446;23;20758;-90
2023/03/15 03:58:17;;;;;;;4.93;1.83;;;6.10;99.90;;;;;;6185045;23;20185;-90
2023/03/15 04:00:55;;;;;;;1.95;0.90;;;6.10;99.90;;;;;;6196887;23;20184;-91
2023/03/15 04:06:38;;;;;;;3.90;1.83;;;5.90;99.90;;;;;;6211369;23;20161;-89
2023/03/15 04:09:12;;;;;;;3.80;2.87;;;5.90;99.90;;;;;;6211979;23;20177;-92
2023/03/15 04:11:48;;;;;;;4.60;2.30;;;5.90;99.90;;;;;;6226182;23;20208;-91
2023/03/15 04:17:04;;;;;;;4.57;2.00;;;5.90;99.90;;;;;;6232450;23;20215;-91
2023/03/15 04:19:45;;;;;;;4.83;1.80;;;6.00;99.90;;;;;;6223892;23;20217;-91
2023/03/15 04:22:22;;;;;;;2.90;1.50;;;5.90;99.90;;;;;;6240832;23;20271;-90
2023/03/15 04:25:03;;;;;;;3.07;1.50;;;5.80;99.90;;;;;;6218838;23;20222;-92
2023/03/15 04:27:57;;;;;;;4.27;1.30;;;5.80;99.90;;;;;;6243558;23;20156;-90
2023/03/15 04:33:15;;;;;;;2.17;1.40;;;5.80;99.90;;;;;;6228983;23;20197;-90
2023/03/15 04:35:53;;;;;;;1.30;1.17;;;5.80;99.90;;;;;;6243524;23;20213;-90
2023/03/15 04:38:27;;;;;;;2.53;1.60;;;5.80;99.90;;;;;;6240322;23;20200;-90
2023/03/15 04:43:40;;;;;;;2.63;1.50;;;5.60;99.90;;;;;;6227332;23;20203;-90
2023/03/15 04:49:03;;;;;;;4.17;1.83;;;5.50;99.90;;;;;;6243689;23;20228;-89
2023/03/15 04:51:36;;;;;;;2.80;1.83;;;5.50;99.90;;;;;;6242936;23;20191;-91
2023/03/15 04:54:14;;;;;;;2.23;1.73;;;5.40;99.90;;;;;;6242615;23;20176;-89
2023/03/15 04:56:46;;;;;;;1.67;1.40;;;5.40;99.90;;;;;;6234573;23;20176;-89
2023/03/15 04:59:22;;;;;;;2.00;1.80;;;5.30;99.90;;;;;;6198423;23;20176;-89
2023/03/15 05:02:10;;;;;;;2.57;1.50;;;5.30;99.90;;;;;;6206490;23;20204;-90
2023/03/15 05:04:44;;;;;;;3.60;1.50;;;5.30;99.90;;;;;;6236581;23;20186;-89
2023/03/15 05:10:23;;;;;;;2.53;1.30;;;5.30;99.90;;;;;;6233201;23;20627;-87
2023/03/15 05:12:57;;;;;;;2.03;1.30;;;5.30;99.90;;;;;;6239513;23;20168;-90
2023/03/15 05:15:33;;;;;;;9.20;1.87;;;5.30;99.90;;;;;;6239211;23;20219;-91
2023/03/15 05:18:05;;;;;;;4.37;1.47;;;5.40;99.90;;;;;;6240692;23;20186;-91
2023/03/15 05:20:49;;;;;;;2.10;1.40;;;5.40;99.90;;;;;;6242615;23;20187;-90
2023/03/15 05:23:21;;;;;;;1.63;1.23;;;5.40;99.90;;;;;;6242743;23;20192;-90
2023/03/15 05:25:54;;;;;;;3.23;1.33;;;5.50;99.90;;;;;;6233387;23;20208;-90
2023/03/15 05:31:03;;;;;;;1.47;1.27;;;5.50;99.90;;;;;;6231277;23;20182;-91
2023/03/15 05:33:45;;;;;;;5.43;1.50;;;5.50;99.90;;;;;;6232752;23;20686;-92
2023/03/15 05:36:32;;;;;;;2.63;1.43;;;5.50;99.90;;;;;;6203609;23;20183;-91
2023/03/15 05:39:10;;;;;;;2.50;1.63;;;5.50;99.90;;;;;;6229174;23;20183;-90
2023/03/15 05:41:41;;;;;;;5.43;1.40;;;5.50;99.90;;;;;;6229434;23;20256;-92
2023/03/15 05:44:19;;;;;;;3.17;1.77;;;5.50;99.90;;;;;;6201634;23;20172;-91
2023/03/15 05:47:09;;;;;;;4.23;1.80;;;5.60;99.90;;;;;;6227227;23;20177;-89
2023/03/15 05:49:40;;;;;;;4.57;1.40;;;5.50;99.90;;;;;;6230050;23;20181;-90
2023/03/15 05:52:42;;;;;;;5.93;1.93;;;5.50;99.90;;;;;;6231473;23;20172;-91
2023/03/15 05:55:20;;;;;;;3.47;1.70;;;5.50;99.90;;;;;;6237644;23;20181;-89
2023/03/15 05:57:56;;;;;;;2.47;1.67;;;5.60;99.90;;;;;;6227994;23;20180;-90
2023/03/15 06:00:45;;;;;;;2.87;1.50;;;5.50;99.90;;;;;;6202446;23;20183;-89
2023/03/15 06:03:20;;;;;;;2.50;1.53;;;5.50;99.90;;;;;;6222177;23;20250;-90
2023/03/15 06:05:52;;;;;;;4.80;2.00;;;5.50;99.90;;;;;;6216806;23;20184;-90
2023/03/15 06:08:26;;;;;;;2.40;1.60;;;5.40;99.90;;;;;;6216811;23;20207;-89
2023/03/15 06:10:58;;;;;;;5.67;1.93;;;5.40;99.90;;;;;;6216358;23;20172;-90
2023/03/15 06:13:29;;;;;;;4.97;2.27;;;5.40;99.90;;;;;;6217217;23;20215;-90
2023/03/15 06:16:00;;;;;;;6.90;2.20;;;5.30;99.90;;;;;;6216979;23;20173;-89
2023/03/15 06:18:32;;;;;;;5.37;1.80;;;5.30;99.90;;;;;;6190131;23;20561;-90
2023/03/15 06:21:03;;;;;;;3.00;1.73;;;5.30;99.90;;;;;;6217665;23;20167;-90
2023/03/15 06:23:36;;;;;;;3.23;2.10;;;5.20;99.90;;;;;;6216528;23;20266;-90
2023/03/15 06:26:08;;;;;;;3.63;1.67;;;5.20;99.90;;;;;;6216605;23;20234;-91
2023/03/15 06:28:40;;;;;;;4.37;1.80;;;5.10;99.90;;;;;;6216249;23;20181;-90
2023/03/15 06:31:14;;;;;;;3.40;1.70;;;5.10;99.90;;;;;;6217364;23;20226;-89
2023/03/15 06:33:46;;;;;;;6.53;1.60;;;5.10;99.90;;;;;;6215732;23;20176;-90
2023/03/15 06:36:17;;;;;;;4.63;1.90;;;5.00;99.90;;;;;;6216816;23;20176;-89
2023/03/15 06:38:52;;;;;;;4.37;2.13;;;5.00;99.90;;;;;;6217143;23;20180;-90
2023/03/15 06:41:25;;;;;;;2.97;1.60;;;5.10;99.90;;;;;;6218382;23;20168;-90
2023/03/15 06:43:58;;;;;;;3.70;1.70;;;5.10;99.90;;;;;;6218302;23;20266;-91
2023/03/15 06:46:30;;;;;;;3.27;2.00;;;5.10;99.90;;;;;;6238975;23;20243;-90
2023/03/15 06:49:02;;;;;;;3.63;1.90;;;5.20;99.90;;;;;;6240143;23;20208;-88
2023/03/15 06:51:34;;;;;;;4.20;1.80;;;5.20;99.90;;;;;;6229543;23;20180;-89
2023/03/15 06:54:07;;;;;;;6.57;2.23;;;5.10;99.90;;;;;;6220257;23;20230;-91
2023/03/15 06:56:39;;;;;;;4.70;2.23;;;4.90;99.90;;;;;;6218767;23;20246;-91
2023/03/15 06:59:10;;;;;;;3.03;2.00;;;4.80;99.90;;;;;;6217907;23;20935;-90
2023/03/15 07:01:42;;;;;;;3.83;2.07;;;4.70;99.90;;;;;;6215912;23;20184;-90
2023/03/15 07:04:14;;;;;;;2.33;1.60;;;4.70;99.90;;;;;;6217317;23;20197;-91
2023/03/15 07:06:45;;;;;;;3.60;1.93;;;4.70;99.90;;;;;;6216098;23;20203;-89
2023/03/15 07:09:19;;;;;;;3.73;1.70;;;4.60;99.90;;;;;;6215154;23;20176;-90
2023/03/15 07:11:50;;;;;;;3.03;1.60;;;4.60;99.90;;;;;;6216469;23;20690;-90
2023/03/15 07:14:21;;;;;;;2.20;1.50;;;4.60;99.90;;;;;;6216704;23;20183;-90
2023/03/15 07:16:53;;;;;;;3.53;1.43;;;4.60;99.90;;;;;;6216585;23;20238;-90
2023/03/15 07:19:24;;;;;;;2.40;1.53;;;4.50;99.90;;;;;;6215549;23;20172;-90
2023/03/15 07:21:56;;;;;;;2.07;1.40;;;4.40;99.90;;;;;;6216566;23;20223;-90
2023/03/15 07:24:31;;;;;;;2.13;1.70;;;4.30;99.90;;;;;;6190878;23;20252;-90
2023/03/15 07:27:02;;;;;;;2.43;1.33;;;4.10;99.90;;;;;;6217404;23;20203;-91
2023/03/15 07:29:34;;;;;;;1.87;1.20;;;3.90;99.90;;;;;;6217241;23;20192;-92
2023/03/15 07:32:06;;;;;;;3.27;1.47;;;3.90;99.90;;;;;;6217233;23;20165;-91
2023/03/15 07:34:38;;;;;;;4.17;1.60;;;3.90;99.90;;;;;;6218082;23;20181;-93
2023/03/15 07:37:11;;;;;;;5.00;1.50;;;3.80;99.90;;;;;;6229288;23;20153;-95
2023/03/15 07:39:45;;;;;;;3.67;1.73;;;3.70;99.90;;;;;;6218569;23;20204;-92
2023/03/15 07:42:17;;;;;;;5.70;1.40;;;3.70;99.90;;;;;;6218025;23;20164;-92
2023/03/15 07:44:48;;;;;;;3.33;1.60;;;3.70;99.90;;;;;;6241081;23;20231;-90
2023/03/15 07:47:20;;;;;;;3.90;1.40;;;3.60;99.90;;;;;;6235112;23;20172;-92
2023/03/15 07:49:53;;;;;;;2.67;1.60;;;3.50;99.90;;;;;;6232900;23;20203;-93
2023/03/15 07:52:26;;;;;;;3.37;1.50;;;3.50;99.90;;;;;;6229065;23;20176;-94
2023/03/15 07:55:00;;;;;;;4.80;1.27;;;3.50;99.90;;;;;;6219629;23;20173;-92
2023/03/15 07:57:31;;;;;;;4.60;1.47;;;3.50;99.90;;;;;;6217496;23;20827;-91
2023/03/15 08:00:03;;;;;;;2.50;1.20;;;3.50;99.90;;;;;;6217929;23;20184;-92
2023/03/15 08:02:35;;;;;;;3.00;1.53;;;3.40;99.90;;;;;;6218036;23;20176;-92
2023/03/15 08:05:07;;;;;;;4.00;2.07;;;3.40;99.90;;;;;;6217700;23;20650;-92
2023/03/15 08:07:40;;;;;;;2.97;1.07;;;3.40;99.90;;;;;;6216467;23;20176;-91
2023/03/15 08:10:15;;;;;;;3.83;1.97;;;3.30;99.90;;;;;;6218082;23;20172;-91
2023/03/15 08:12:47;;;;;;;2.47;1.30;;;3.40;99.90;;;;;;6218020;23;20230;-91
2023/03/15 08:15:20;;;;;;;5.00;1.50;;;3.50;99.90;;;;;;6217569;23;20516;-92
2023/03/15 08:17:51;;;;;;;1.80;1.03;;;3.70;99.90;;;;;;6216798;23;20184;-93
2023/03/15 08:20:23;;;;;;;2.10;1.50;;;3.80;99.90;;;;;;6192653;23;20613;-91
2023/03/15 08:22:57;;;;;;;3.07;1.43;;;3.90;99.90;;;;;;6217114;23;20176;-92
2023/03/15 08:25:31;;;;;;;3.87;1.37;;;3.90;99.90;;;;;;6218074;23;20172;-92
2023/03/15 08:28:03;;;;;;;2.10;0.90;;;3.90;99.90;;;;;;6217986;23;20184;-93
2023/03/15 08:30:34;;;;;;;1.93;1.00;;;4.00;99.90;;;;;;6220023;23;20231;-92
2023/03/15 08:33:06;;;;;;;1.90;1.00;;;4.10;99.90;;;;;;6221459;23;20214;-93
2023/03/15 08:35:38;;;;;;;3.70;1.10;;;4.10;99.90;;;;;;6220395;23;20188;-92
2023/03/15 08:38:11;;;;;;;3.53;0.93;;;4.20;99.90;;;;;;6217050;23;20180;-92
2023/03/15 08:40:45;;;;;;;2.60;1.00;;;4.20;99.90;;;;;;6193248;23;20203;-92
2023/03/15 08:43:17;;;;;;;1.80;0.70;;;4.20;99.90;;;;;;6230510;23;20160;-92
2023/03/15 08:45:49;;;;;;;1.63;0.60;;;4.30;99.90;;;;;;6220432;23;20192;-92
2023/03/15 08:48:31;;;;;;;1.03;0.63;;;4.20;99.90;;;;;;6222003;23;20172;-94
2023/03/15 08:51:05;;;;;;;3.73;0.93;;;4.30;99.90;;;;;;6209143;23;20181;-96
2023/03/15 08:53:37;;;;;;;2.20;0.80;;;4.30;99.90;;;;;;6242529;23;20157;-92
2023/03/15 08:56:11;;;;;;;5.63;1.00;;;4.30;99.90;;;;;;6236627;23;20226;-92
2023/03/15 08:58:43;;;;;;;1.20;0.80;;;4.20;99.90;;;;;;6218025;23;20183;-92
2023/03/15 09:01:15;;;;;;;1.50;0.60;;;4.10;99.90;;;;;;6218723;23;20227;-92
2023/03/15 09:03:47;;;;;;;1.70;0.50;;;4.20;99.90;;;;;;6218681;23;20200;-92
2023/03/15 09:06:18;;;;;;;3.63;0.70;;;4.20;99.90;;;;;;6218377;23;20547;-91
2023/03/15 09:08:52;;;;;;;3.73;0.83;;;4.20;99.90;;;;;;6191609;23;20192;-92
2023/03/15 09:11:26;;;;;;;3.17;0.80;;;4.30;99.90;;;;;;6168437;23;20234;-92
2023/03/15 09:13:59;;;;;;;2.70;0.60;;;4.40;99.90;;;;;;6219419;23;20224;-91
2023/03/15 09:16:31;;;;;;;2.97;0.90;;;4.40;99.90;;;;;;6218151;23;20183;-92
2023/03/15 09:19:03;;;;;;;2.20;0.80;;;4.50;99.90;;;;;;6217812;23;20165;-91
2023/03/15 09:21:35;;;;;;;2.77;0.80;;;4.50;99.90;;;;;;6219326;23;20607;-92
2023/03/15 09:24:07;;;;;;;3.33;1.10;;;4.60;99.90;;;;;;6217373;23;20208;-92
2023/03/15 09:26:41;;;;;;;2.83;0.80;;;4.60;99.90;;;;;;6217329;23;20176;-92
2023/03/15 09:29:12;;;;;;;4.47;0.70;;;4.60;99.90;;;;;;6216873;23;20701;-92
2023/03/15 09:31:44;;;;;;;2.33;0.80;;;4.60;99.90;;;;;;6217640;23;20173;-92
2023/03/15 09:34:16;;;;;;;2.87;0.90;;;4.60;99.90;;;;;;6218088;23;20230;-92
2023/03/15 09:36:51;;;;;;;3.53;0.87;;;4.60;99.90;;;;;;6217181;23;20251;-91
2023/03/15 09:39:24;;;;;;;2.97;0.80;;;4.60;99.90;;;;;;6216394;23;20227;-91
2023/03/15 09:41:59;;;;;;;2.27;0.90;;;4.70;99.90;;;;;;6217274;23;20180;-92
2023/03/15 09:44:47;;;;;;;4.57;0.70;;;4.70;99.90;;;;;;6217254;23;20200;-92
2023/03/15 09:47:29;;;;;;;1.40;0.70;;;4.70;99.90;;;;;;6216712;23;20169;-93
2023/03/15 09:50:07;;;;;;;4.87;1.00;;;4.80;99.90;;;;;;6218043;23;20180;-94
2023/03/15 09:52:43;;;;;;;5.17;1.07;;;4.80;99.90;;;;;;6219618;23;20176;-93
2023/03/15 09:55:20;;;;;;;2.90;1.00;;;4.80;99.90;;;;;;6218198;23;20164;-92
2023/03/15 09:57:57;;;;;;;4.47;1.10;;;4.80;99.90;;;;;;6216630;23;20622;-93
2023/03/15 10:00:41;;;;;;;0.70;0.60;;;4.80;99.90;;;;;;6217968;23;20183;-92
2023/03/15 10:03:21;;;;;;;3.80;0.90;;;4.90;99.90;;;;;;6217993;23;20215;-93
2023/03/15 10:05:58;;;;;;;2.93;0.93;;;4.80;99.90;;;;;;6192131;23;20208;-90
2023/03/15 10:08:30;;;;;;;4.23;1.10;;;4.90;99.90;;;;;;6215582;23;20176;-92
2023/03/15 10:11:09;;;;;;;6.07;0.93;;;4.90;99.90;;;;;;6190716;23;20211;-91
2023/03/15 10:13:59;;;;;;;3.30;1.03;;;4.90;99.90;;;;;;6216442;23;20173;-92
2023/03/15 10:16:41;;;;;;;2.73;0.80;;;4.80;99.90;;;;;;6216375;23;20223;-91
2023/03/15 10:19:28;;;;;;;2.33;0.77;;;4.80;99.90;;;;;;6216259;23;20176;-90
2023/03/15 10:22:04;;;;;;;3.53;1.30;;;4.80;99.90;;;;;;6218695;23;20176;-93
2023/03/15 10:24:41;;;;;;;6.07;0.93;;;4.70;99.90;;;;;;6217045;23;20239;-90
2023/03/15 10:27:21;;;;;;;2.00;0.80;;;4.70;99.90;;;;;;6216122;23;20177;-91
2023/03/15 10:29:57;;;;;;;2.73;0.90;;;4.70;99.90;;;;;;6216887;23;20184;-91
2023/03/15 10:32:32;;;;;;;1.07;0.77;;;4.70;99.90;;;;;;6218110;23;20240;-92
2023/03/15 10:35:12;;;;;;;1.20;0.80;;;4.70;99.90;;;;;;6191329;23;20487;-92
2023/03/15 10:37:43;;;;;;;3.23;1.00;;;4.70;99.90;;;;;;6215375;23;20179;-92
2023/03/15 10:40:17;;;;;;;5.37;1.03;;;4.60;99.90;;;;;;6216404;23;20177;-93
2023/03/15 10:42:49;;;;;;;2.57;1.00;;;4.70;99.90;;;;;;6218818;23;20173;-93
2023/03/15 10:45:27;;;;;;;1.90;1.03;;;4.60;99.90;;;;;;6219148;23;20659;-92
2023/03/15 10:47:59;;;;;;;1.97;1.10;;;4.60;99.90;;;;;;6217887;23;20203;-92
2023/03/15 10:50:32;;;;;;;3.47;0.97;;;4.60;99.90;;;;;;6217366;23;20172;-93
2023/03/15 10:53:12;;;;;;;3.00;1.13;;;4.60;99.90;;;;;;6221083;23;20257;-93
2023/03/15 10:55:46;;;;;;;3.77;1.03;;;4.60;99.90;;;;;;6240633;23;20220;-93
2023/03/15 10:58:30;;;;;;;2.23;1.13;;;4.50;99.90;;;;;;6240911;23;20167;-92
2023/03/15 11:01:06;;;;;;;2.83;1.10;;;4.60;99.90;;;;;;6220975;23;20611;-91
2023/03/15 11:03:38;;;;;;;3.13;1.00;;;4.60;99.90;;;;;;6217738;23;20191;-92
2023/03/15 11:06:22;;;;;;;4.13;1.10;;;4.60;99.90;;;;;;6217312;23;20215;-91
2023/03/15 11:08:54;;;;;;;4.30;1.20;;;4.60;99.90;;;;;;6216478;23;20168;-91
2023/03/15 11:11:26;;;;;;;4.07;1.20;;;4.60;99.90;;;;;;6219288;23;20171;-91
2023/03/15 11:14:01;;;;;;;3.80;1.57;;;4.60;99.90;;;;;;6192916;23;20188;-92
2023/03/15 11:16:39;;;;;;;6.80;1.40;;;4.60;99.90;;;;;;6217830;23;20180;-91
2023/03/15 11:19:17;;;;;;;3.10;1.73;;;4.60;99.90;;;;;;6217241;23;20223;-91
2023/03/15 11:21:52;;;;;;;3.30;1.20;;;4.60;99.90;;;;;;6218828;23;20168;-91
2023/03/15 11:24:27;;;;;;;2.80;1.40;;;4.50;99.90;;;;;;6219178;23;20670;-90
2023/03/15 11:27:02;;;;;;;2.67;1.10;;;4.50;99.90;;;;;;6218148;23;20479;-91
2023/03/15 11:29:36;;;;;;;4.20;1.50;;;4.50;99.90;;;;;;6217052;23;20216;-90
2023/03/15 11:32:15;;;;;;;4.87;1.70;;;4.60;99.90;;;;;;6218341;23;20183;-91
2023/03/15 11:34:54;;;;;;;2.63;0.93;;;4.50;99.90;;;;;;6218305;23;20168;-91
2023/03/15 11:37:30;;;;;;;2.93;1.40;;;4.60;99.90;;;;;;6190874;23;20238;-91
2023/03/15 11:40:06;;;;;;;1.70;1.33;;;4.60;99.90;;;;;;6218098;23;20176;-91
2023/03/15 11:42:49;;;;;;;4.40;1.53;;;4.50;99.90;;;;;;6217827;23;20558;-91
2023/03/15 11:45:28;;;;;;;5.63;1.47;;;4.50;99.90;;;;;;6220084;23;20211;-91
2023/03/15 11:48:05;;;;;;;4.03;1.40;;;4.50;99.90;;;;;;6217395;23;20225;-91
2023/03/15 11:50:37;;;;;;;3.63;1.80;;;4.60;99.90;;;;;;6218627;23;20164;-91
2023/03/15 11:53:12;;;;;;;3.03;1.47;;;4.60;99.90;;;;;;6218345;23;20200;-90
2023/03/15 11:55:48;;;;;;;2.43;1.30;;;4.60;99.90;;;;;;6218178;23;20180;-90
2023/03/15 11:58:33;;;;;;;3.77;1.37;;;4.60;99.90;;;;;;6216285;23;20744;-90
2023/03/15 12:01:06;;;;;;;5.10;1.40;;;4.60;99.90;;;;;;6219197;23;20232;-90
2023/03/15 12:03:42;;;;;;;5.20;1.77;;;4.60;99.90;;;;;;6219827;23;20177;-90
2023/03/15 12:06:41;;;;;;;8.40;1.70;;;4.60;99.90;;;;;;6193769;23;20200;-89
2023/03/15 12:09:41;;;;;;;4.00;1.43;;;4.70;99.90;;;;;;6217093;23;20555;-90
2023/03/15 12:12:37;;;;;;;5.23;1.43;;;4.80;99.90;;;;;;6217658;23;20487;-90
2023/03/15 12:15:32;;;;;;;1.03;0.93;;;4.80;99.90;;;;;;6218937;23;20173;-90
2023/03/15 12:18:06;;;;;;;3.50;1.20;;;4.80;99.90;;;;;;6217113;23;20513;-90
2023/03/15 12:20:42;;;;;;;1.97;1.20;;;4.90;99.90;;;;;;6194333;23;20183;-90
2023/03/15 12:23:29;;;;;;;1.17;1.00;;;4.90;99.90;;;;;;6226477;23;20176;-90
2023/03/15 12:26:09;;;;;;;3.23;1.33;;;4.80;99.90;;;;;;6220730;23;20205;-89
2023/03/15 12:28:44;;;;;;;4.00;1.50;;;4.80;99.90;;;;;;6219118;23;20227;-89
2023/03/15 12:31:16;;;;;;;4.73;1.23;;;4.80;99.90;;;;;;6218572;23;20168;-90
2023/03/15 12:33:51;;;;;;;4.67;1.27;;;4.80;99.90;;;;;;6217915;23;20181;-89
2023/03/15 12:36:36;;;;;;;2.23;1.40;;;4.90;99.90;;;;;;6218258;23;20198;-89
2023/03/15 12:39:35;;;;;;;3.83;1.10;;;4.90;99.90;;;;;;6218204;23;20180;-89
2023/03/15 12:42:07;;;;;;;2.20;1.00;;;4.80;99.90;;;;;;6224468;23;20177;-91
2023/03/15 12:44:43;;;;;;;3.30;1.10;;;4.80;99.90;;;;;;6225255;23;20227;-89
2023/03/15 12:47:14;;;;;;;4.30;1.63;;;4.80;99.90;;;;;;6218733;23;20204;-89
2023/03/15 12:49:47;;;;;;;3.93;1.63;;;4.90;99.90;;;;;;6222050;23;20631;-90
2023/03/15 12:52:44;;;;;;;3.53;1.73;;;4.80;99.90;;;;;;6219672;23;20176;-89
2023/03/15 12:55:17;;;;;;;3.00;1.63;;;4.90;99.90;;;;;;6218604;23;20161;-90
2023/03/15 12:57:52;;;;;;;2.77;1.33;;;4.80;99.90;;;;;;6223575;23;20187;-90
2023/03/15 13:00:26;;;;;;;1.90;1.30;;;4.70;99.90;;;;;;6242771;23;20195;-90
2023/03/15 13:03:06;;;;;;;6.13;1.60;;;4.70;99.90;;;;;;6236500;23;20540;-89
2023/03/15 13:05:52;;;;;;;4.43;1.33;;;4.60;99.90;;;;;;6222534;23;20252;-88
2023/03/15 13:08:44;;;;;;;1.83;0.87;;;4.50;99.90;;;;;;6222757;23;20248;-90
2023/03/15 13:11:23;;;;;;;2.80;1.10;;;4.50;99.90;;;;;;6224509;23;20172;-91
2023/03/15 13:14:07;;;;;;;3.20;1.30;;;4.50;99.90;;;;;;6225010;23;20173;-88
2023/03/15 13:16:44;;;;;;;4.43;1.30;;;4.40;99.90;;;;;;6223624;23;20187;-90
2023/03/15 13:19:21;;;;;;;2.53;1.00;;;4.40;99.90;;;;;;6222305;23;20168;-91
2023/03/15 13:22:06;;;;;;;7.93;1.20;;;4.40;99.90;;;;;;6220414;23;20176;-90
2023/03/15 13:24:47;;;;;;;1.60;1.27;;;4.30;99.90;;;;;;6224915;23;20168;-90
2023/03/15 13:27:33;;;;;;;6.20;1.53;;;4.30;99.90;;;;;;6234513;23;20192;-90
2023/03/15 13:30:24;;;;;;;4.13;1.00;;;4.40;99.90;;;;;;6240701;23;20240;-90
2023/03/15 13:33:06;;;;;;;2.20;1.40;;;4.40;99.90;;;;;;6240757;23;20157;-88
2023/03/15 13:35:44;;;;;;;3.57;1.10;;;4.30;99.90;;;;;;6235020;23;20178;-90
2023/03/15 13:38:27;;;;;;;3.50;1.37;;;4.20;99.90;;;;;;6222718;23;20195;-90
2023/03/15 13:41:02;;;;;;;3.70;1.20;;;4.20;99.90;;;;;;6221422;23;20223;-89
2023/03/15 13:43:35;;;;;;;3.50;0.90;;;4.30;99.90;;;;;;6220572;23;20176;-88
2023/03/15 13:46:07;;;;;;;3.50;1.30;;;4.30;99.90;;;;;;6217663;23;20294;-89
2023/03/15 13:48:41;;;;;;;2.73;1.07;;;4.20;99.90;;;;;;6215928;23;20192;-89
2023/03/15 13:51:19;;;;;;;3.17;1.00;;;4.30;99.90;;;;;;6216526;23;20179;-90
2023/03/15 13:53:54;;;;;;;2.67;1.10;;;4.30;99.90;;;;;;6217811;23;20172;-90
2023/03/15 13:56:33;;;;;;;4.57;1.30;;;4.30;99.90;;;;;;6217125;23;20618;-90
2023/03/15 13:59:20;;;;;;;3.23;1.20;;;4.40;99.90;;;;;;6216375;23;20693;-90
2023/03/15 14:01:53;;;;;;;4.67;1.10;;;4.30;99.90;;;;;;6190904;23;20180;-90
2023/03/15 14:04:26;;;;;;;3.40;1.20;;;4.30;99.90;;;;;;6191453;23;20248;-89